Time;durP1;ratioP1;P1;durP2;ratioP2;P2;SDS_P1;SDS_P2;PMS_P1;PMS_P2;Temp;Humidity;BMP_temperature;BMP_pressure;BME280_temperature;BME280_humidity;BME280_pressure;Samples;Min_cycle;Max_cycle;Signal;HPM_P1;HPM_P2
2022/12/27 00:01:48;;;;;;;10.40;2.27;;;4.10;99.90;;;;;;5055527;28;20175;-77
2022/12/27 00:04:14;;;;;;;8.40;2.03;;;4.10;99.90;;;;;;5073414;28;20228;-77
2022/12/27 00:06:40;;;;;;;4.87;1.90;;;4.20;99.90;;;;;;5073276;28;20199;-77
2022/12/27 00:09:05;;;;;;;11.03;2.10;;;4.20;99.90;;;;;;5055307;28;20575;-77
2022/12/27 00:11:31;;;;;;;4.50;2.37;;;4.20;99.90;;;;;;5073833;28;20171;-77
2022/12/27 00:14:02;;;;;;;8.17;1.93;;;4.20;99.90;;;;;;5055347;28;20257;-77
2022/12/27 00:16:27;;;;;;;6.20;1.90;;;4.20;99.90;;;;;;5073121;28;20222;-77
2022/12/27 00:18:53;;;;;;;9.07;1.93;;;4.20;99.90;;;;;;5055262;28;20271;-77
2022/12/27 00:21:20;;;;;;;3.17;2.10;;;4.20;99.90;;;;;;5055237;28;20251;-77
2022/12/27 00:23:50;;;;;;;4.47;1.80;;;4.20;99.90;;;;;;5073651;28;20179;-77
2022/12/27 00:26:19;;;;;;;8.93;2.13;;;4.20;99.90;;;;;;5055157;28;20194;-77
2022/12/27 00:28:45;;;;;;;4.57;1.70;;;4.20;99.90;;;;;;5055073;28;20700;-77
2022/12/27 00:31:12;;;;;;;6.83;2.40;;;4.10;99.90;;;;;;5055055;28;20167;-77
2022/12/27 00:33:39;;;;;;;6.07;1.80;;;4.20;99.90;;;;;;5073047;28;20163;-77
2022/12/27 00:36:08;;;;;;;5.53;1.60;;;4.20;99.90;;;;;;5072979;28;20643;-77
2022/12/27 00:38:34;;;;;;;5.23;1.70;;;4.20;99.90;;;;;;5072880;28;20166;-77
2022/12/27 00:41:01;;;;;;;2.93;1.67;;;4.20;99.90;;;;;;5073074;28;20179;-77
2022/12/27 00:43:26;;;;;;;4.50;1.77;;;4.20;99.90;;;;;;5054914;28;20595;-77
2022/12/27 00:45:52;;;;;;;4.20;1.97;;;4.20;99.90;;;;;;5073430;28;20170;-77
2022/12/27 00:48:18;;;;;;;8.43;2.20;;;4.20;99.90;;;;;;5054704;28;20214;-77
2022/12/27 00:50:44;;;;;;;5.80;1.70;;;4.10;99.90;;;;;;5054900;28;20170;-77
2022/12/27 00:53:10;;;;;;;7.83;1.93;;;4.10;99.90;;;;;;5072820;28;20262;-77
2022/12/27 00:55:36;;;;;;;4.03;1.60;;;4.20;99.90;;;;;;5054787;28;20214;-77
2022/12/27 00:58:03;;;;;;;4.53;1.90;;;4.20;99.90;;;;;;5072696;28;20217;-77
2022/12/27 01:00:29;;;;;;;3.63;1.80;;;4.10;99.90;;;;;;5072647;28;20243;-77
2022/12/27 01:02:54;;;;;;;9.80;2.20;;;4.10;99.90;;;;;;5054707;28;20281;-77
2022/12/27 01:05:21;;;;;;;5.73;1.67;;;4.10;99.90;;;;;;5072695;28;20183;-77
2022/12/27 01:07:46;;;;;;;7.90;2.10;;;4.10;99.90;;;;;;5058539;28;20202;-77
2022/12/27 01:10:12;;;;;;;7.87;1.53;;;4.10;99.90;;;;;;5076525;28;20209;-77
2022/12/27 01:12:38;;;;;;;2.73;1.70;;;4.20;99.90;;;;;;5058770;28;20662;-77
2022/12/27 01:15:06;;;;;;;5.47;1.90;;;4.10;99.90;;;;;;5076708;28;20167;-77
2022/12/27 01:17:31;;;;;;;4.30;1.70;;;4.20;99.90;;;;;;5076592;28;20178;-77
2022/12/27 01:19:57;;;;;;;7.03;1.73;;;4.10;99.90;;;;;;5076563;28;20252;-77
2022/12/27 01:22:22;;;;;;;9.60;2.20;;;4.10;99.90;;;;;;5076495;28;20224;-77
2022/12/27 01:24:48;;;;;;;8.73;2.23;;;4.20;99.90;;;;;;5076438;28;20640;-77
2022/12/27 01:27:13;;;;;;;11.23;2.10;;;4.20;99.90;;;;;;5076434;28;20194;-77
2022/12/27 01:29:39;;;;;;;7.50;2.13;;;4.20;99.90;;;;;;5076479;28;20190;-77
2022/12/27 01:32:04;;;;;;;7.10;1.93;;;4.20;99.90;;;;;;5058629;28;20175;-77
2022/12/27 01:34:30;;;;;;;3.00;1.60;;;4.20;99.90;;;;;;5058425;28;20171;-77
2022/12/27 01:36:55;;;;;;;9.23;2.13;;;4.10;99.90;;;;;;5076221;28;20181;-77
2022/12/27 01:39:21;;;;;;;7.73;2.50;;;4.10;99.90;;;;;;5058517;28;20205;-77
2022/12/27 01:44:48;;;;;;;5.63;2.00;;;4.10;99.90;;;;;;5076540;28;20170;-77
2022/12/27 01:47:17;;;;;;;7.80;1.60;;;4.10;99.90;;;;;;5057978;28;20195;-77
2022/12/27 01:49:52;;;;;;;8.20;1.80;;;4.20;99.90;;;;;;5057963;28;20198;-77
2022/12/27 01:52:19;;;;;;;4.67;1.73;;;4.20;99.90;;;;;;5075973;28;20155;-77
2022/12/27 01:54:45;;;;;;;8.90;1.97;;;4.10;99.90;;;;;;5075840;28;20638;-77
2022/12/27 01:57:11;;;;;;;7.30;1.90;;;4.20;99.90;;;;;;5075860;28;20221;-77
2022/12/27 01:59:37;;;;;;;13.10;1.73;;;4.10;99.90;;;;;;5075676;28;20193;-77
2022/12/27 02:02:03;;;;;;;6.10;2.03;;;4.10;99.90;;;;;;5075982;28;20252;-77
2022/12/27 02:04:30;;;;;;;3.43;1.47;;;4.10;99.90;;;;;;5057767;28;20174;-77
2022/12/27 02:06:57;;;;;;;6.00;1.80;;;4.10;99.90;;;;;;5057878;28;20548;-77
2022/12/27 02:09:30;;;;;;;4.73;1.37;;;4.20;99.90;;;;;;5075632;28;20625;-77
2022/12/27 02:11:57;;;;;;;4.60;2.10;;;4.10;99.90;;;;;;5075812;28;20223;-78
2022/12/27 02:14:28;;;;;;;7.80;1.60;;;4.10;99.90;;;;;;5075459;28;20186;-77
2022/12/27 02:16:56;;;;;;;6.00;2.00;;;4.10;99.90;;;;;;5075834;28;20599;-77
2022/12/27 02:19:40;;;;;;;5.97;1.73;;;4.20;99.90;;;;;;5074727;28;20198;-77
2022/12/27 02:22:08;;;;;;;5.93;1.93;;;4.20;99.90;;;;;;5075621;28;20228;-78
2022/12/27 02:24:59;;;;;;;4.77;1.23;;;4.20;99.90;;;;;;5075353;28;20254;-77
2022/12/27 02:28:21;;;;;;;5.37;1.53;;;4.20;99.90;;;;;;5075557;28;20194;-77
2022/12/27 02:30:49;;;;;;;9.87;1.90;;;4.20;99.90;;;;;;4974538;28;20163;-77
2022/12/27 02:33:23;;;;;;;8.80;2.17;;;4.20;99.90;;;;;;4958190;28;20656;-77
2022/12/27 02:35:56;;;;;;;7.60;1.77;;;4.20;99.90;;;;;;5041273;28;20190;-77
2022/12/27 02:38:36;;;;;;;7.50;1.97;;;4.20;99.90;;;;;;5075261;28;20238;-77
2022/12/27 02:55:40;;;;;;;4.10;1.50;;;4.20;99.90;;;;;;5074993;28;20158;-77
2022/12/27 02:58:11;;;;;;;9.00;1.87;;;4.20;99.90;;;;;;5074715;28;20201;-77
2022/12/27 03:04:22;;;;;;;5.97;2.00;;;4.20;99.90;;;;;;5075201;28;20570;-77
2022/12/27 03:07:19;;;;;;;3.70;1.40;;;4.20;99.90;;;;;;5056538;28;20252;-77
2022/12/27 03:16:41;;;;;;;5.67;1.83;;;4.20;99.90;;;;;;5074963;28;20246;-77
2022/12/27 03:19:12;;;;;;;7.67;1.93;;;4.20;99.90;;;;;;5056324;28;20190;-77
2022/12/27 03:27:30;;;;;;;7.33;2.03;;;4.20;99.90;;;;;;5074551;28;20191;-77
2022/12/27 03:33:14;;;;;;;6.13;1.77;;;4.20;99.90;;;;;;5074616;28;20166;-77
2022/12/27 03:38:01;;;;;;;7.63;1.40;;;4.20;99.90;;;;;;5055967;28;20179;-77
2022/12/27 03:38:42;;;;;;;6.83;2.17;;;4.20;99.90;;;;;;5073593;28;20174;-77
2022/12/27 03:43:57;;;;;;;6.07;1.53;;;4.20;99.90;;;;;;5074178;28;20158;-77
2022/12/27 03:46:34;;;;;;;5.83;1.93;;;4.30;99.90;;;;;;5073662;28;20285;-77
2022/12/27 03:49:32;;;;;;;4.10;1.60;;;4.30;99.90;;;;;;5073890;28;20190;-77
2022/12/27 03:52:07;;;;;;;4.30;1.63;;;4.30;99.90;;;;;;5055724;28;20171;-77
2022/12/27 03:54:38;;;;;;;4.57;2.10;;;4.30;99.90;;;;;;5055561;28;20531;-77
2022/12/27 03:57:14;;;;;;;7.13;1.93;;;4.30;99.90;;;;;;5055492;28;20214;-77
2022/12/27 03:59:39;;;;;;;3.50;1.50;;;4.30;99.90;;;;;;5073392;28;20711;-77
2022/12/27 04:02:05;;;;;;;6.07;1.70;;;4.30;99.90;;;;;;5073459;28;20186;-77
2022/12/27 04:04:31;;;;;;;7.07;1.73;;;4.30;99.90;;;;;;5073691;28;20198;-77
2022/12/27 04:06:57;;;;;;;9.47;2.10;;;4.30;99.90;;;;;;5073334;28;20257;-77
2022/12/27 04:36:45;;;;;;;9.17;2.07;;;4.50;99.90;;;;;;5073052;28;20170;-77
2022/12/27 04:39:11;;;;;;;3.40;1.53;;;4.60;99.90;;;;;;5054969;28;20638;-77
2022/12/27 04:56:05;;;;;;;4.27;1.87;;;4.60;99.90;;;;;;5073363;28;20166;-77
2022/12/27 04:58:31;;;;;;;11.67;2.30;;;4.70;99.90;;;;;;5072585;28;20194;-77
2022/12/27 05:03:49;;;;;;;3.83;1.80;;;4.60;99.90;;;;;;5073053;28;20161;-77
2022/12/27 05:06:15;;;;;;;6.60;1.60;;;4.60;99.90;;;;;;5072563;28;20193;-77
2022/12/27 05:14:13;;;;;;;6.03;2.00;;;4.60;99.90;;;;;;5072644;28;20250;-76
2022/12/27 05:16:40;;;;;;;3.83;2.07;;;4.60;99.90;;;;;;5054607;28;20219;-77
2022/12/27 05:19:08;;;;;;;5.87;2.07;;;4.60;99.90;;;;;;5072531;28;20626;-77
2022/12/27 05:21:38;;;;;;;4.73;1.90;;;4.60;99.90;;;;;;5072522;28;20171;-77
2022/12/27 05:26:48;;;;;;;7.00;2.07;;;4.60;99.90;;;;;;5072732;28;20575;-76
2022/12/27 05:29:14;;;;;;;6.27;1.90;;;4.60;99.90;;;;;;5072503;28;20187;-76
2022/12/27 05:31:39;;;;;;;6.03;2.20;;;4.60;99.90;;;;;;5072453;28;20179;-77
2022/12/27 05:34:05;;;;;;;8.27;2.33;;;4.60;99.90;;;;;;5054484;28;20283;-77
2022/12/27 05:36:31;;;;;;;5.57;1.77;;;4.60;99.90;;;;;;5072365;28;20626;-77
2022/12/27 05:38:58;;;;;;;5.47;1.83;;;4.60;99.90;;;;;;5054319;28;20680;-77
2022/12/27 05:41:24;;;;;;;6.10;2.30;;;4.60;99.90;;;;;;5054313;28;20179;-77
2022/12/27 05:43:49;;;;;;;6.03;1.60;;;4.70;99.90;;;;;;5054288;28;20186;-77
2022/12/27 05:46:19;;;;;;;4.87;1.80;;;4.60;99.90;;;;;;5072195;28;20175;-77
2022/12/27 05:48:45;;;;;;;6.80;1.90;;;4.60;99.90;;;;;;5072187;28;20179;-77
2022/12/27 05:51:13;;;;;;;6.33;2.40;;;4.60;99.90;;;;;;5072252;28;20260;-77
2022/12/27 05:53:39;;;;;;;6.97;1.77;;;4.50;99.90;;;;;;5056364;28;20679;-77
2022/12/27 05:56:06;;;;;;;5.97;2.53;;;4.50;99.90;;;;;;5075935;28;20167;-77
2022/12/27 05:58:32;;;;;;;5.80;1.73;;;4.40;99.90;;;;;;5057727;28;20632;-77
2022/12/27 06:00:58;;;;;;;5.17;2.17;;;4.40;99.90;;;;;;5075798;28;20190;-77
2022/12/27 06:03:24;;;;;;;6.73;1.73;;;4.40;99.90;;;;;;5075708;28;20167;-77
2022/12/27 06:05:49;;;;;;;5.70;1.87;;;4.40;99.90;;;;;;5075716;28;20603;-76
2022/12/27 06:08:15;;;;;;;13.20;2.37;;;4.40;99.90;;;;;;5075600;28;20206;-77
2022/12/27 06:10:41;;;;;;;8.43;2.30;;;4.30;99.90;;;;;;5057642;28;20615;-77
2022/12/27 06:13:06;;;;;;;7.07;1.73;;;4.30;99.90;;;;;;5057623;28;20175;-77
2022/12/27 06:15:32;;;;;;;7.40;2.17;;;4.30;99.90;;;;;;5075529;28;20246;-77
2022/12/27 06:17:59;;;;;;;4.43;1.50;;;4.30;99.90;;;;;;5057539;28;20175;-77
2022/12/27 06:20:25;;;;;;;4.53;1.70;;;4.30;99.90;;;;;;5075393;28;20675;-77
2022/12/27 06:22:50;;;;;;;10.13;2.20;;;4.20;99.90;;;;;;5075523;28;20174;-77
2022/12/27 06:25:16;;;;;;;5.30;1.97;;;4.20;99.90;;;;;;5075367;28;20175;-76
2022/12/27 06:27:41;;;;;;;5.37;1.97;;;4.20;99.90;;;;;;5075201;28;20248;-77
2022/12/27 06:30:07;;;;;;;5.87;1.50;;;4.20;99.90;;;;;;5075235;28;20555;-76
2022/12/27 06:32:34;;;;;;;10.40;2.30;;;4.20;99.90;;;;;;5075189;28;20167;-77
2022/12/27 06:34:59;;;;;;;5.47;1.93;;;4.20;99.90;;;;;;5057221;28;20171;-76
2022/12/27 06:37:25;;;;;;;11.97;2.50;;;4.10;99.90;;;;;;5057108;28;20182;-76
2022/12/27 06:39:50;;;;;;;9.77;2.17;;;4.10;99.90;;;;;;5075022;28;20703;-77
2022/12/27 06:42:16;;;;;;;5.40;2.33;;;4.10;99.90;;;;;;5075547;28;20667;-77
2022/12/27 06:44:41;;;;;;;7.90;1.97;;;4.20;99.90;;;;;;5074955;28;20175;-76
2022/12/27 06:47:07;;;;;;;7.67;2.23;;;4.20;99.90;;;;;;5056776;28;20199;-76
2022/12/27 06:49:32;;;;;;;6.23;1.93;;;4.10;99.90;;;;;;5056764;28;20274;-76
2022/12/27 06:51:58;;;;;;;9.93;2.33;;;4.10;99.90;;;;;;5074761;28;20560;-76
2022/12/27 06:54:24;;;;;;;5.67;1.93;;;4.10;99.90;;;;;;5074699;28;20178;-76
2022/12/27 06:56:49;;;;;;;11.33;2.57;;;4.10;99.90;;;;;;5074516;28;20191;-76
2022/12/27 06:59:15;;;;;;;4.43;1.87;;;4.10;99.90;;;;;;5074752;28;20680;-76
2022/12/27 07:01:41;;;;;;;5.70;1.80;;;4.10;99.90;;;;;;5056547;28;20179;-76
2022/12/27 07:04:08;;;;;;;6.43;2.00;;;4.10;99.90;;;;;;5056364;28;20175;-77
2022/12/27 07:06:35;;;;;;;8.57;1.97;;;4.10;99.90;;;;;;5056445;28;20343;-76
2022/12/27 07:09:02;;;;;;;3.73;1.63;;;4.10;99.90;;;;;;5056398;28;20663;-76
2022/12/27 07:11:30;;;;;;;8.30;2.17;;;4.10;99.90;;;;;;5056433;28;20170;-76
2022/12/27 07:13:56;;;;;;;6.77;2.27;;;4.10;99.90;;;;;;5056628;28;20175;-76
2022/12/27 07:16:24;;;;;;;2.17;1.63;;;4.00;99.90;;;;;;5056331;28;20233;-76
2022/12/27 07:18:50;;;;;;;5.27;1.97;;;4.00;99.90;;;;;;5074334;28;20194;-76
2022/12/27 07:21:18;;;;;;;6.53;2.07;;;4.00;99.90;;;;;;5074362;28;20171;-76
2022/12/27 07:23:44;;;;;;;6.67;1.73;;;4.00;99.90;;;;;;5074114;28;20258;-76
2022/12/27 07:26:16;;;;;;;6.90;1.83;;;4.00;99.90;;;;;;5074080;28;20630;-76
2022/12/27 07:28:42;;;;;;;4.80;1.80;;;4.00;99.90;;;;;;5074301;28;20622;-76
2022/12/27 07:31:09;;;;;;;6.43;1.90;;;4.00;99.90;;;;;;5055977;28;20175;-76
2022/12/27 07:33:37;;;;;;;10.43;2.37;;;4.00;99.90;;;;;;5056000;28;20171;-76
2022/12/27 07:36:06;;;;;;;4.47;1.90;;;4.00;99.90;;;;;;5073810;28;20163;-76
2022/12/27 07:38:32;;;;;;;11.37;2.50;;;4.00;99.90;;;;;;5073606;28;20171;-77
2022/12/27 07:40:58;;;;;;;5.93;2.00;;;4.00;99.90;;;;;;5073693;28;20520;-76
2022/12/27 07:43:25;;;;;;;9.07;2.27;;;4.00;99.90;;;;;;5073650;28;20168;-76
2022/12/27 07:45:50;;;;;;;6.47;2.00;;;4.00;99.90;;;;;;5073846;28;20183;-76
2022/12/27 07:48:16;;;;;;;8.17;1.83;;;4.00;99.90;;;;;;5055594;28;20245;-76
2022/12/27 07:50:41;;;;;;;6.53;2.40;;;4.00;99.90;;;;;;5073448;28;20562;-76
2022/12/27 07:53:07;;;;;;;5.70;2.07;;;4.00;99.90;;;;;;5073589;28;20175;-76
2022/12/27 07:55:32;;;;;;;7.17;2.00;;;4.00;99.90;;;;;;5073401;28;20174;-76
2022/12/27 07:57:58;;;;;;;5.97;2.30;;;4.00;99.90;;;;;;5055328;28;20197;-76
2022/12/27 08:00:23;;;;;;;10.63;2.27;;;4.00;99.90;;;;;;5073218;28;20229;-76
2022/12/27 08:02:49;;;;;;;11.60;2.40;;;4.00;99.90;;;;;;5055399;28;20183;-76
2022/12/27 08:05:14;;;;;;;7.27;2.10;;;4.10;99.90;;;;;;5073318;28;20630;-76
2022/12/27 08:07:40;;;;;;;7.83;1.73;;;4.00;99.90;;;;;;5055367;28;20198;-76
2022/12/27 08:10:07;;;;;;;4.37;1.80;;;4.00;99.90;;;;;;5073129;28;20198;-76
2022/12/27 08:12:33;;;;;;;6.77;1.93;;;4.00;99.90;;;;;;5055226;28;20174;-76
2022/12/27 08:14:59;;;;;;;7.63;1.90;;;4.10;99.90;;;;;;5073066;28;20178;-76
2022/12/27 08:17:28;;;;;;;5.67;2.27;;;4.00;99.90;;;;;;5054798;28;20171;-76
2022/12/27 08:19:54;;;;;;;5.60;2.03;;;4.00;99.90;;;;;;5072981;28;20198;-76
2022/12/27 08:22:21;;;;;;;4.97;1.90;;;4.00;99.90;;;;;;5073120;28;20256;-76
2022/12/27 08:24:47;;;;;;;4.13;1.93;;;4.00;99.90;;;;;;5072970;28;20190;-77
2022/12/27 08:27:20;;;;;;;4.87;1.80;;;4.00;99.90;;;;;;5072885;28;20325;-76
2022/12/27 08:29:45;;;;;;;5.60;1.97;;;4.00;99.90;;;;;;5072924;28;20214;-76
2022/12/27 08:32:10;;;;;;;6.90;2.07;;;4.00;99.90;;;;;;5073453;28;20216;-76
2022/12/27 08:34:36;;;;;;;6.90;1.53;;;4.00;99.90;;;;;;5073240;28;20205;-76
2022/12/27 08:37:01;;;;;;;4.67;1.70;;;4.00;99.90;;;;;;5073379;28;20171;-76
2022/12/27 08:39:28;;;;;;;4.70;1.77;;;4.10;99.90;;;;;;5073117;28;20195;-76
2022/12/27 08:41:54;;;;;;;8.20;2.20;;;4.10;99.90;;;;;;5054739;28;20174;-76
2022/12/27 08:44:20;;;;;;;8.43;2.00;;;4.10;99.90;;;;;;5072852;28;20171;-77
2022/12/27 08:46:46;;;;;;;2.97;1.40;;;4.10;99.90;;;;;;5072588;28;20245;-76
2022/12/27 08:49:11;;;;;;;4.70;1.87;;;4.10;99.90;;;;;;5072941;28;20187;-76
2022/12/27 08:51:37;;;;;;;6.57;1.93;;;4.20;99.90;;;;;;5054666;28;20652;-76
2022/12/27 08:54:03;;;;;;;7.87;1.63;;;4.20;99.90;;;;;;5072682;28;20246;-76
2022/12/27 08:56:28;;;;;;;9.87;2.03;;;4.20;99.90;;;;;;5072852;28;20593;-76
2022/12/27 08:58:54;;;;;;;3.23;1.73;;;4.30;99.90;;;;;;5072551;28;20195;-76
2022/12/27 09:01:19;;;;;;;7.90;2.03;;;4.30;99.90;;;;;;5072626;28;20179;-76
2022/12/27 09:03:45;;;;;;;6.70;2.30;;;4.40;99.90;;;;;;5072540;28;20224;-76
2022/12/27 09:06:17;;;;;;;8.80;2.00;;;4.40;99.90;;;;;;5073030;28;20301;-76
2022/12/27 09:08:43;;;;;;;5.57;1.90;;;4.40;99.90;;;;;;5072847;28;20630;-76
2022/12/27 09:11:12;;;;;;;7.73;2.07;;;4.40;99.90;;;;;;5072741;28;20247;-76
2022/12/27 09:13:38;;;;;;;9.20;2.00;;;4.40;99.90;;;;;;5072621;28;20159;-76
2022/12/27 09:16:26;;;;;;;11.43;2.13;;;4.50;99.90;;;;;;5072466;28;20238;-76
2022/12/27 09:18:53;;;;;;;7.30;1.90;;;4.50;99.90;;;;;;5072502;28;20186;-77
2022/12/27 09:21:20;;;;;;;5.23;1.87;;;4.60;99.90;;;;;;5072379;28;20179;-76
2022/12/27 09:23:47;;;;;;;7.30;2.20;;;4.70;99.90;;;;;;5072360;28;20640;-76
2022/12/27 09:26:18;;;;;;;4.53;2.07;;;4.80;99.90;;;;;;5072264;28;20207;-76
2022/12/27 09:28:45;;;;;;;6.83;2.13;;;4.90;99.90;;;;;;5074565;28;20241;-76
2022/12/27 09:31:12;;;;;;;9.50;2.17;;;4.90;99.90;;;;;;5058246;28;20201;-76
2022/12/27 09:33:37;;;;;;;8.40;2.10;;;4.90;99.90;;;;;;5076124;28;20232;-76
2022/12/27 09:36:06;;;;;;;6.40;2.17;;;5.00;99.90;;;;;;5076121;28;20167;-76
2022/12/27 09:38:32;;;;;;;9.40;2.00;;;5.00;99.90;;;;;;5057980;28;20316;-76
2022/12/27 09:41:00;;;;;;;9.80;2.03;;;5.00;99.90;;;;;;5076056;28;20175;-76
2022/12/27 09:44:04;;;;;;;3.83;1.93;;;5.10;99.90;;;;;;5076518;28;20531;-78
2022/12/27 09:46:56;;;;;;;9.40;2.23;;;5.10;99.90;;;;;;5057947;28;20167;-76
2022/12/27 09:49:31;;;;;;;5.00;1.87;;;5.20;99.90;;;;;;5075855;28;20260;-76
2022/12/27 09:52:03;;;;;;;7.13;2.10;;;5.30;99.90;;;;;;5057917;28;20159;-76
2022/12/27 09:54:43;;;;;;;9.13;1.83;;;5.30;99.90;;;;;;5075961;28;20245;-76
2022/12/27 09:57:39;;;;;;;10.23;2.10;;;5.40;99.90;;;;;;5075851;28;20186;-76
2022/12/27 10:00:20;;;;;;;5.50;1.77;;;5.50;99.90;;;;;;5075652;28;20281;-76
2022/12/27 10:02:49;;;;;;;5.53;1.73;;;5.60;99.90;;;;;;5058325;28;20643;-77
2022/12/27 10:05:21;;;;;;;5.83;1.83;;;5.60;99.90;;;;;;5058193;28;20202;-77
2022/12/27 10:07:59;;;;;;;6.10;1.90;;;5.70;99.90;;;;;;5075894;28;20203;-76
2022/12/27 10:10:56;;;;;;;7.93;1.80;;;5.70;99.90;;;;;;5057505;28;20194;-77
2022/12/27 10:13:36;;;;;;;11.33;2.20;;;5.70;99.90;;;;;;5075403;28;20161;-76
2022/12/27 10:16:31;;;;;;;7.90;2.10;;;5.80;99.90;;;;;;5075689;28;20163;-76
2022/12/27 10:19:18;;;;;;;7.07;1.80;;;5.80;99.90;;;;;;5075578;28;20189;-76
2022/12/27 10:22:15;;;;;;;6.93;1.73;;;5.90;99.90;;;;;;5075573;28;20685;-76
2022/12/27 10:24:55;;;;;;;8.33;2.27;;;5.90;99.90;;;;;;5057230;28;20170;-76
2022/12/27 10:27:25;;;;;;;5.43;2.20;;;5.90;99.90;;;;;;5057155;28;20210;-76
2022/12/27 10:29:52;;;;;;;7.13;2.43;;;6.00;99.90;;;;;;5075088;28;20191;-76
2022/12/27 10:32:18;;;;;;;6.27;1.87;;;6.00;99.90;;;;;;5075136;28;20171;-76
2022/12/27 10:34:44;;;;;;;6.27;1.80;;;6.10;99.90;;;;;;5057136;28;20177;-76
2022/12/27 10:37:14;;;;;;;4.70;1.80;;;6.20;99.90;;;;;;5075279;28;20178;-76
2022/12/27 10:39:41;;;;;;;6.57;2.30;;;6.30;99.90;;;;;;5074419;28;20278;-76
2022/12/27 10:42:12;;;;;;;5.03;2.13;;;6.30;99.90;;;;;;5075001;28;20171;-77
2022/12/27 10:44:38;;;;;;;9.33;2.40;;;6.30;99.90;;;;;;5075058;28;20536;-76
2022/12/27 10:47:04;;;;;;;11.60;2.70;;;6.30;99.90;;;;;;5074948;28;20199;-76
2022/12/27 10:49:31;;;;;;;8.23;2.20;;;6.50;99.90;;;;;;5074731;28;20276;-76
2022/12/27 10:52:20;;;;;;;6.20;2.33;;;6.50;99.90;;;;;;5074782;28;20178;-76
2022/12/27 10:54:54;;;;;;;10.27;2.93;;;6.60;99.90;;;;;;5075017;28;20167;-76
2022/12/27 10:57:32;;;;;;;8.73;2.50;;;6.60;99.90;;;;;;5074515;28;20428;-76
2022/12/27 11:00:17;;;;;;;5.97;2.33;;;6.60;99.90;;;;;;5074710;28;20593;-76
2022/12/27 11:02:56;;;;;;;8.60;2.80;;;6.60;99.90;;;;;;5056609;28;20637;-76
2022/12/27 11:05:26;;;;;;;6.70;2.17;;;6.70;99.90;;;;;;5074481;28;20174;-76
2022/12/27 11:07:51;;;;;;;6.03;2.10;;;6.70;99.90;;;;;;5074364;28;20198;-76
2022/12/27 11:10:21;;;;;;;12.23;2.30;;;6.80;99.90;;;;;;5074324;28;20197;-76
2022/12/27 11:12:58;;;;;;;3.57;1.50;;;6.80;99.90;;;;;;5056387;28;20593;-76
2022/12/27 11:15:25;;;;;;;3.40;1.50;;;6.80;99.90;;;;;;5074171;28;20260;-76
2022/12/27 11:17:56;;;;;;;7.67;1.73;;;6.90;99.90;;;;;;5074227;28;20207;-76
2022/12/27 11:20:25;;;;;;;5.10;2.13;;;6.90;99.90;;;;;;5056211;28;20213;-76
2022/12/27 11:22:56;;;;;;;8.10;2.23;;;7.00;99.90;;;;;;5074088;28;20183;-77
2022/12/27 11:25:23;;;;;;;6.97;2.07;;;7.00;99.90;;;;;;5074383;28;20511;-77
2022/12/27 11:27:54;;;;;;;6.33;2.00;;;7.00;99.90;;;;;;5056135;28;20584;-76
2022/12/27 11:30:22;;;;;;;5.27;2.00;;;7.10;99.90;;;;;;5073896;28;20244;-76
2022/12/27 11:32:48;;;;;;;6.27;1.87;;;7.10;99.90;;;;;;5055979;28;20175;-76
2022/12/27 11:35:18;;;;;;;5.40;1.60;;;7.10;99.90;;;;;;5073837;28;20240;-76
2022/12/27 11:37:44;;;;;;;7.27;2.17;;;7.10;99.90;;;;;;5073799;28;20717;-77
2022/12/27 11:40:21;;;;;;;6.17;1.83;;;7.10;99.90;;;;;;5073679;28;20363;-76
2022/12/27 11:42:51;;;;;;;4.43;2.23;;;7.10;99.90;;;;;;5074035;28;20159;-76
2022/12/27 11:45:17;;;;;;;5.90;1.90;;;7.10;99.90;;;;;;5073922;28;20181;-77
2022/12/27 11:48:03;;;;;;;6.47;1.90;;;7.10;99.90;;;;;;5073558;28;20572;-77
2022/12/27 11:50:49;;;;;;;7.80;1.60;;;7.30;99.90;;;;;;5054824;28;20218;-76
2022/12/27 11:54:00;;;;;;;6.73;1.97;;;7.30;99.90;;;;;;5055566;28;20182;-76
2022/12/27 11:56:35;;;;;;;5.87;1.77;;;7.40;99.90;;;;;;5073715;28;20178;-76
2022/12/27 11:59:20;;;;;;;3.90;1.50;;;7.40;99.90;;;;;;5055563;28;20648;-77
2022/12/27 12:02:26;;;;;;;4.20;1.60;;;7.30;99.90;;;;;;5055468;28;20178;-76
2022/12/27 12:05:01;;;;;;;3.80;1.60;;;7.40;99.90;;;;;;5073860;28;20159;-76
2022/12/27 12:07:58;;;;;;;5.83;1.70;;;7.30;99.90;;;;;;5055371;28;20234;-76
2022/12/27 12:10:44;;;;;;;10.93;2.13;;;7.30;99.90;;;;;;5073440;28;20229;-77
2022/12/27 12:13:42;;;;;;;7.00;1.87;;;7.30;99.90;;;;;;5055234;28;20236;-77
2022/12/27 12:16:53;;;;;;;8.97;1.77;;;7.30;99.90;;;;;;5055214;28;20274;-76
2022/12/27 12:19:37;;;;;;;5.20;1.87;;;7.30;99.90;;;;;;5055022;28;20282;-76
2022/12/27 12:22:39;;;;;;;7.73;1.60;;;7.30;99.90;;;;;;5055075;28;20182;-76
2022/12/27 12:25:28;;;;;;;4.57;1.50;;;7.30;99.90;;;;;;5054998;28;20701;-76
2022/12/27 12:28:16;;;;;;;4.23;1.60;;;7.30;99.90;;;;;;5054994;28;20203;-76
2022/12/27 12:31:04;;;;;;;7.23;1.47;;;7.30;99.90;;;;;;5072823;28;20753;-76
2022/12/27 12:33:58;;;;;;;4.70;1.40;;;7.30;99.90;;;;;;5054950;28;20175;-76
2022/12/27 12:36:32;;;;;;;5.57;1.53;;;7.30;99.90;;;;;;5054873;28;20170;-76
2022/12/27 12:39:15;;;;;;;3.53;1.57;;;7.40;99.90;;;;;;5072935;28;20194;-77
2022/12/27 12:42:02;;;;;;;5.73;1.73;;;7.30;99.90;;;;;;5073081;28;20223;-77
2022/12/27 12:44:36;;;;;;;3.47;1.43;;;7.30;99.90;;;;;;5054821;28;20558;-76
2022/12/27 12:47:17;;;;;;;5.40;1.43;;;7.30;99.90;;;;;;5072730;28;20736;-76
2022/12/27 12:49:59;;;;;;;7.53;1.97;;;7.30;99.90;;;;;;5072766;28;20190;-76
2022/12/27 12:52:44;;;;;;;6.37;1.53;;;7.30;99.90;;;;;;5054725;28;20182;-77
2022/12/27 12:55:16;;;;;;;9.60;1.53;;;7.30;99.90;;;;;;5054727;28;20182;-76
2022/12/27 12:58:06;;;;;;;4.93;1.47;;;7.40;99.90;;;;;;5072566;28;20201;-77
2022/12/27 13:01:12;;;;;;;8.90;1.90;;;7.40;99.90;;;;;;5072500;28;20198;-76
2022/12/27 13:04:03;;;;;;;3.43;1.20;;;7.40;99.90;;;;;;5074975;28;20197;-76
2022/12/27 13:06:52;;;;;;;8.03;1.73;;;7.40;99.90;;;;;;5076967;28;20512;-76
2022/12/27 13:09:51;;;;;;;5.93;1.83;;;7.40;99.90;;;;;;5058570;28;20207;-76
2022/12/27 13:13:00;;;;;;;5.33;1.60;;;7.30;99.90;;;;;;5058777;28;20594;-76
2022/12/27 13:15:58;;;;;;;4.90;1.73;;;7.30;99.90;;;;;;4959422;28;20173;-76
2022/12/27 13:18:32;;;;;;;5.20;1.40;;;7.40;99.90;;;;;;4975942;28;20621;-76
2022/12/27 13:21:16;;;;;;;4.73;1.60;;;7.40;99.90;;;;;;5036401;28;20559;-76
2022/12/27 13:23:51;;;;;;;7.13;1.90;;;7.30;99.90;;;;;;5076416;28;20532;-77
2022/12/27 13:26:21;;;;;;;5.23;1.50;;;7.30;99.90;;;;;;5058404;28;20635;-77
2022/12/27 13:29:21;;;;;;;6.53;1.43;;;7.30;99.90;;;;;;5076168;28;20233;-77
2022/12/27 13:32:09;;;;;;;5.43;1.87;;;7.30;99.90;;;;;;5076303;28;20186;-76
2022/12/27 13:34:53;;;;;;;4.03;1.67;;;7.30;99.90;;;;;;5058313;28;20175;-76
2022/12/27 13:38:00;;;;;;;5.73;1.87;;;7.20;99.90;;;;;;5058188;28;20240;-77
2022/12/27 13:40:57;;;;;;;5.43;2.20;;;7.20;99.90;;;;;;5058087;28;20209;-76
2022/12/27 13:43:38;;;;;;;12.37;2.10;;;7.20;99.90;;;;;;5076034;28;20252;-77
2022/12/27 13:46:38;;;;;;;6.60;1.77;;;7.20;99.90;;;;;;5076250;28;20257;-77
2022/12/27 13:49:29;;;;;;;3.00;1.80;;;7.20;99.90;;;;;;5075862;28;20201;-77
2022/12/27 13:52:04;;;;;;;6.03;1.90;;;7.10;99.90;;;;;;5076038;28;20167;-76
2022/12/27 13:54:36;;;;;;;9.33;1.60;;;7.10;99.90;;;;;;5075800;28;20163;-76
2022/12/27 13:57:25;;;;;;;6.17;1.83;;;7.10;99.90;;;;;;5076139;28;20549;-76
2022/12/27 14:00:01;;;;;;;4.67;2.00;;;7.10;99.90;;;;;;5075687;28;20190;-76
2022/12/27 14:03:03;;;;;;;6.53;1.80;;;7.10;99.90;;;;;;5075904;28;20155;-77
2022/12/27 14:05:55;;;;;;;5.63;2.03;;;7.10;99.90;;;;;;5057719;28;20174;-76
2022/12/27 14:09:14;;;;;;;6.37;1.90;;;7.10;99.90;;;;;;5075667;28;20245;-76
2022/12/27 14:11:39;;;;;;;4.63;1.57;;;7.10;99.90;;;;;;4975298;28;20174;-76
2022/12/27 14:14:09;;;;;;;8.10;2.10;;;7.10;99.90;;;;;;5066310;28;20179;-76
2022/12/27 14:17:05;;;;;;;6.97;1.93;;;7.00;99.90;;;;;;5057458;28;20167;-76
2022/12/27 14:20:06;;;;;;;3.40;1.83;;;7.00;99.90;;;;;;5075568;28;20197;-76
2022/12/27 14:22:56;;;;;;;7.67;2.00;;;7.00;99.90;;;;;;5061738;28;20270;-77
2022/12/27 14:25:59;;;;;;;6.53;1.77;;;7.00;99.90;;;;;;5075239;28;20210;-77
2022/12/27 14:29:11;;;;;;;5.73;1.63;;;7.00;99.90;;;;;;5075032;28;20229;-77
2022/12/27 14:31:42;;;;;;;3.63;1.63;;;7.00;99.90;;;;;;5075163;28;20167;-77
2022/12/27 14:34:32;;;;;;;7.90;1.70;;;7.00;99.90;;;;;;5075354;28;20167;-77
2022/12/27 14:37:29;;;;;;;4.10;1.40;;;7.00;99.90;;;;;;5057093;28;20213;-76
2022/12/27 14:39:57;;;;;;;3.73;2.00;;;6.90;99.90;;;;;;5056959;28;20248;-76
2022/12/27 14:42:38;;;;;;;17.33;2.20;;;6.90;99.90;;;;;;5075213;28;20182;-76
2022/12/27 14:45:31;;;;;;;6.90;2.00;;;6.90;99.90;;;;;;5056959;28;20179;-76
2022/12/27 14:48:05;;;;;;;5.33;1.77;;;6.90;99.90;;;;;;5075057;28;20194;-76
2022/12/27 14:51:08;;;;;;;8.67;2.07;;;6.80;99.90;;;;;;5074726;28;20240;-76
2022/12/27 14:53:58;;;;;;;4.80;1.57;;;6.80;99.90;;;;;;5074740;28;20166;-77
2022/12/27 14:56:35;;;;;;;10.63;2.10;;;6.80;99.90;;;;;;5056726;28;20182;-77
2022/12/27 14:59:22;;;;;;;3.57;1.40;;;6.70;99.90;;;;;;5074905;28;20210;-77
2022/12/27 15:02:25;;;;;;;8.13;1.93;;;6.70;99.90;;;;;;5074466;28;20175;-76